New Philadelphia, OH (44663)

4:20 AM EST on February 07, 2016 (GMT -0500)
Steele Hill | | Change Station
CLOSE
Current Station
Personal Weather Station
Location: New Philadelphia, OH
Elevation: 942 ft
Nearby Weather Stations

Elev 942 ft 40.48 °N, 81.48 °W | Updated 23 seconds ago

Clear
Clear
21.7 °F
Feels Like 22 °F
N
0.0
Wind Variable Wind from NNE
Gusts 0.0 mph

Today
High -- | Low -- °F
--% Chance of Precip.
Yesterday
High -- | Low -- °F
Precip. -- in
Pressure 30.19 in
Visibility 10.0 miles
Clouds Clear
Windchill 22 °F
Dew Point 18 °F
Humidity 84%
Rainfall 0.00 in
Snow Depth Not available.
7:29 AM 5:50 PM
Waning Crescent, 2% visible
METAR KPHD 070853Z AUTO 11003KT 10SM CLR M05/M08 A3016 RMK AO2 SLP224 T10501078 58010
Pressure 30.19 in
Visibility 10.0 miles
Clouds Clear
Windchill 22 °F
Dew Point 18 °F
Humidity 84%
Rainfall 0.00 in
Snow Depth Not available.
7:29 AM 5:50 PM
Waning Crescent, 2% visible
METAR KPHD 070853Z AUTO 11003KT 10SM CLR M05/M08 A3016 RMK AO2 SLP224 T10501078 58010

10-Day Weather Forecast

Almanac

Astronomy

Feb. 07, 2016 Rise Set
Actual Time
Civil Twilight
Nautical Twilight
Astronomical Twilight
Moon
Length of Visible Light
Length of Day
Tomorrow will be .
, % of the Moon is Illuminated

Today's Extremes

State Highs State Lows

Community

WunderPhotos

Upload Photos

1,891,171 photos uploaded!

WunderBlog® & News

Nearby

Air Quality

  Air Quality AQ Index Pollutant
Not available.

Snow Depth

Station Depth Elevation

Earthquake Activity

City Distance Mag. Time & Date
Minimum magnitude displayed is 2.5.

Coastal Water Temperatures

Place Temperature

Stations

Nearby Weather Stations

Station Location Temp. Windchill Dew Point Humidity Wind Precip. Elev Updated Type
                   

Watches & Warnings

There are currently no watches in effect.